Time;durP1;ratioP1;P1;durP2;ratioP2;P2;SDS_P1;SDS_P2;PMS_P1;PMS_P2;Temp;Humidity;BMP_temperature;BMP_pressure;BME280_temperature;BME280_humidity;BME280_pressure;Samples;Min_cycle;Max_cycle;Signal;HPM_P1;HPM_P2
2021/01/17 00:00:55;;;;;;;43.15;21.38;;;-3.50;99.90;;;;;;5075991;28;20504;-76
2021/01/17 00:03:21;;;;;;;51.58;23.48;;;-3.50;99.90;;;;;;5082259;28;20055;-77
2021/01/17 00:05:49;;;;;;;43.88;21.55;;;-3.50;99.90;;;;;;5079667;28;20048;-78
2021/01/17 00:08:21;;;;;;;42.33;19.98;;;-3.50;99.90;;;;;;5086177;28;20076;-77
2021/01/17 00:10:48;;;;;;;45.42;21.02;;;-3.50;99.90;;;;;;5083905;28;20040;-75
2021/01/17 00:13:15;;;;;;;47.75;22.17;;;-3.50;99.90;;;;;;5087796;28;20119;-76
2021/01/17 00:15:41;;;;;;;45.38;21.70;;;-3.50;99.90;;;;;;5088286;28;20123;-77
2021/01/17 00:18:08;;;;;;;41.97;21.00;;;-3.50;99.90;;;;;;5087079;28;20052;-78
2021/01/17 00:20:37;;;;;;;59.95;21.48;;;-3.50;99.90;;;;;;5057566;28;20054;-76
2021/01/17 00:23:05;;;;;;;45.72;21.80;;;-3.50;99.90;;;;;;5086403;28;20167;-78
2021/01/17 00:25:33;;;;;;;43.97;21.33;;;-3.50;99.90;;;;;;5088525;28;20059;-77
2021/01/17 00:28:01;;;;;;;42.97;21.55;;;-3.40;99.90;;;;;;5085242;28;20405;-75
2021/01/17 00:30:37;;;;;;;47.92;21.60;;;-3.50;99.90;;;;;;5059782;28;20430;-77
2021/01/17 00:33:04;;;;;;;50.55;23.58;;;-3.40;99.90;;;;;;5084849;28;20055;-76
2021/01/17 00:35:35;;;;;;;48.85;21.45;;;-3.50;99.90;;;;;;5060531;28;20060;-77
2021/01/17 00:38:09;;;;;;;40.53;21.48;;;-3.40;99.90;;;;;;5083429;28;20052;-76
2021/01/17 00:40:38;;;;;;;42.25;20.83;;;-3.40;99.90;;;;;;5086760;28;20036;-78
2021/01/17 00:43:09;;;;;;;45.03;20.63;;;-3.40;99.90;;;;;;5055376;28;20040;-76
2021/01/17 00:45:35;;;;;;;44.17;20.92;;;-3.40;99.90;;;;;;5088055;28;20131;-76
2021/01/17 00:48:04;;;;;;;49.20;22.58;;;-3.40;99.90;;;;;;5069474;28;20059;-75
2021/01/17 00:50:31;;;;;;;49.35;22.65;;;-3.40;99.90;;;;;;5084592;28;20072;-75
2021/01/17 00:52:57;;;;;;;49.15;22.05;;;-3.40;99.90;;;;;;5087070;28;20521;-77
2021/01/17 00:55:26;;;;;;;45.40;22.67;;;-3.40;99.90;;;;;;5042392;28;20146;-77
2021/01/17 00:57:52;;;;;;;51.95;23.90;;;-3.40;99.90;;;;;;5039710;28;20047;-76
2021/01/17 01:00:23;;;;;;;53.08;24.70;;;-3.40;99.90;;;;;;5074301;28;20109;-77
2021/01/17 01:02:53;;;;;;;44.58;21.85;;;-3.40;99.90;;;;;;5080819;28;20052;-77
2021/01/17 01:05:24;;;;;;;50.40;23.73;;;-3.40;99.90;;;;;;5081323;28;20051;-77
2021/01/17 01:07:51;;;;;;;51.78;23.10;;;-3.30;99.90;;;;;;5069351;28;20040;-77
2021/01/17 01:10:18;;;;;;;48.97;22.23;;;-3.40;99.90;;;;;;5080436;28;20124;-76
2021/01/17 01:12:53;;;;;;;47.63;22.35;;;-3.40;99.90;;;;;;5062194;28;20033;-76
2021/01/17 01:15:21;;;;;;;45.25;21.50;;;-3.30;99.90;;;;;;5080480;28;20048;-77
2021/01/17 01:17:47;;;;;;;45.38;22.38;;;-3.30;99.90;;;;;;5086684;28;20093;-76
2021/01/17 01:20:14;;;;;;;48.22;22.50;;;-3.30;99.90;;;;;;5075801;28;20041;-76
2021/01/17 01:22:43;;;;;;;49.58;23.42;;;-3.30;99.90;;;;;;5075102;28;20491;-76
2021/01/17 01:25:11;;;;;;;50.33;23.08;;;-3.30;99.90;;;;;;5086488;28;20048;-75
2021/01/17 01:27:37;;;;;;;53.30;24.63;;;-3.40;99.90;;;;;;5086810;28;20523;-75
2021/01/17 01:30:07;;;;;;;52.83;23.70;;;-3.30;99.90;;;;;;5086896;28;20131;-74
2021/01/17 01:32:34;;;;;;;54.55;25.55;;;-3.30;99.90;;;;;;5059218;28;20412;-74
2021/01/17 01:35:03;;;;;;;50.33;24.63;;;-3.30;99.90;;;;;;5080169;28;20052;-75
2021/01/17 01:37:29;;;;;;;57.67;25.42;;;-3.40;99.90;;;;;;5086839;28;20126;-76
2021/01/17 01:39:56;;;;;;;56.90;24.88;;;-3.30;99.90;;;;;;5064257;28;20470;-76
2021/01/17 01:42:22;;;;;;;56.50;25.63;;;-3.40;99.90;;;;;;5075579;28;20136;-76
2021/01/17 01:44:49;;;;;;;53.40;25.00;;;-3.40;99.90;;;;;;5084837;28;20136;-75
2021/01/17 01:47:24;;;;;;;56.70;26.58;;;-3.40;99.90;;;;;;5086598;28;20082;-76
2021/01/17 01:49:54;;;;;;;53.72;24.60;;;-3.40;99.90;;;;;;5063288;28;20044;-75
2021/01/17 01:52:21;;;;;;;55.95;25.95;;;-3.40;99.90;;;;;;5086447;28;20455;-77
2021/01/17 01:54:48;;;;;;;63.53;28.17;;;-3.40;99.90;;;;;;5082574;28;20184;-75
2021/01/17 01:57:15;;;;;;;57.63;26.63;;;-3.40;99.90;;;;;;5086161;28;20109;-75
2021/01/17 01:59:41;;;;;;;59.58;26.70;;;-3.40;99.90;;;;;;5059876;28;20489;-76
2021/01/17 02:02:09;;;;;;;60.75;27.98;;;-3.50;99.90;;;;;;5029269;28;20048;-75
2021/01/17 02:04:39;;;;;;;58.55;27.58;;;-3.40;99.90;;;;;;5069680;28;20470;-76
2021/01/17 02:07:20;;;;;;;61.55;28.23;;;-3.40;99.90;;;;;;5048368;28;20051;-75
2021/01/17 02:09:47;;;;;;;66.30;27.73;;;-3.50;99.90;;;;;;5065681;28;20163;-76
2021/01/17 02:12:19;;;;;;;57.53;26.80;;;-3.40;99.90;;;;;;5057315;28;20370;-76
2021/01/17 02:14:45;;;;;;;;;;;-3.40;99.90;;;;;;5063733;28;20128;-75
2021/01/17 02:17:17;;;;;;;57.35;27.48;;;-3.40;99.90;;;;;;5055896;28;19921;-75
2021/01/17 02:20:05;;;;;;;58.72;28.15;;;-3.40;99.90;;;;;;5078321;28;20082;-76
2021/01/17 02:22:43;;;;;;;67.45;27.25;;;-3.40;99.90;;;;;;5068171;28;20047;-76
2021/01/17 02:25:10;;;;;;;65.07;28.23;;;-3.40;99.90;;;;;;5065081;28;20071;-75
2021/01/17 02:27:39;;;;;;;62.22;27.88;;;-3.40;99.90;;;;;;5067272;28;20080;-76
2021/01/17 02:30:10;;;;;;;67.65;29.90;;;-3.40;99.90;;;;;;5063046;28;20091;-75
2021/01/17 02:32:50;;;;;;;64.80;29.27;;;-3.40;99.90;;;;;;5051817;28;20632;-75
2021/01/17 02:35:17;;;;;;;63.25;29.00;;;-3.30;99.90;;;;;;5055204;28;20467;-76
2021/01/17 02:37:57;;;;;;;60.22;28.65;;;-3.30;99.90;;;;;;5083589;28;20379;-77
2021/01/17 02:40:46;;;;;;;66.75;29.52;;;-3.30;99.90;;;;;;5085064;28;20080;-76
2021/01/17 02:43:15;;;;;;;68.50;29.33;;;-3.30;99.90;;;;;;5071248;28;20076;-75
2021/01/17 02:45:44;;;;;;;69.82;32.03;;;-3.30;99.90;;;;;;5063978;28;20131;-77
2021/01/17 02:48:11;;;;;;;69.05;31.77;;;-3.30;99.90;;;;;;5084200;28;20075;-76
2021/01/17 02:50:37;;;;;;;71.20;32.92;;;-3.20;99.90;;;;;;5079493;28;20047;-75
2021/01/17 02:53:15;;;;;;;66.75;29.50;;;-3.20;99.90;;;;;;5085049;28;20123;-75
2021/01/17 02:55:41;;;;;;;64.53;29.63;;;-3.30;99.90;;;;;;5077112;28;20297;-76
2021/01/17 02:58:18;;;;;;;72.43;31.55;;;-3.30;99.90;;;;;;5081024;28;20116;-77
2021/01/17 03:00:49;;;;;;;73.13;31.33;;;-3.30;99.90;;;;;;5056749;28;20048;-76
2021/01/17 03:03:20;;;;;;;80.47;32.95;;;-3.30;99.90;;;;;;5060633;28;20052;-76
2021/01/17 03:05:54;;;;;;;70.82;30.63;;;-3.30;99.90;;;;;;5069803;28;20056;-75
2021/01/17 03:08:21;;;;;;;73.32;32.35;;;-3.30;99.90;;;;;;5049768;28;20119;-77
2021/01/17 03:10:51;;;;;;;73.90;31.73;;;-3.30;99.90;;;;;;5085044;28;20109;-75
2021/01/17 03:13:21;;;;;;;72.68;32.30;;;-3.30;99.90;;;;;;5064837;28;20113;-76
2021/01/17 03:15:51;;;;;;;70.93;31.85;;;-3.30;99.90;;;;;;5082363;28;20076;-76
2021/01/17 03:18:18;;;;;;;77.53;31.35;;;-3.30;99.90;;;;;;5079421;28;20632;-77
2021/01/17 03:20:47;;;;;;;70.88;32.28;;;-3.30;99.90;;;;;;5073429;28;20040;-76
2021/01/17 03:23:14;;;;;;;75.18;33.03;;;-3.20;99.90;;;;;;5067143;28;20406;-77
2021/01/17 03:25:42;;;;;;;75.03;32.05;;;-3.20;99.90;;;;;;5084741;28;20113;-76
2021/01/17 03:28:12;;;;;;;67.22;30.23;;;-3.20;99.90;;;;;;5049700;28;20556;-76
2021/01/17 03:30:42;;;;;;;63.63;29.58;;;-3.20;99.90;;;;;;5071064;28;20067;-75
2021/01/17 03:33:08;;;;;;;65.45;29.08;;;-3.20;99.90;;;;;;5084665;28;20047;-76
2021/01/17 03:35:36;;;;;;;67.53;29.70;;;-3.20;99.90;;;;;;5079862;28;20044;-75
2021/01/17 03:38:03;;;;;;;65.47;30.40;;;-3.20;99.90;;;;;;5073775;28;20124;-74
2021/01/17 03:40:32;;;;;;;69.10;31.10;;;-3.20;99.90;;;;;;5084464;28;20101;-76
2021/01/17 03:42:58;;;;;;;74.40;31.92;;;-3.20;99.90;;;;;;5087288;28;20075;-75
2021/01/17 03:45:24;;;;;;;67.65;30.00;;;-3.20;99.90;;;;;;5069671;28;20044;-76
2021/01/17 03:47:53;;;;;;;68.03;30.40;;;-3.20;99.90;;;;;;5073370;28;20040;-75
2021/01/17 03:50:20;;;;;;;68.85;30.58;;;-3.20;99.90;;;;;;5079284;28;20072;-76
2021/01/17 03:52:46;;;;;;;72.43;32.63;;;-3.20;99.90;;;;;;5069193;28;20036;-76
2021/01/17 03:55:13;;;;;;;73.05;31.08;;;-3.20;99.90;;;;;;5059175;28;20052;-75
2021/01/17 03:57:42;;;;;;;69.10;29.60;;;-3.20;99.90;;;;;;5063770;28;20776;-78
2021/01/17 04:00:12;;;;;;;72.78;32.33;;;-3.10;99.90;;;;;;5066943;28;20089;-76
2021/01/17 04:02:41;;;;;;;67.72;30.45;;;-3.10;99.90;;;;;;5086195;28;20131;-78
2021/01/17 04:05:10;;;;;;;67.25;29.77;;;-3.10;99.90;;;;;;5068018;28;20036;-75
2021/01/17 04:07:39;;;;;;;69.95;29.92;;;-3.10;99.90;;;;;;5085153;28;20056;-76
2021/01/17 04:10:06;;;;;;;65.72;30.77;;;-3.10;99.90;;;;;;5083866;28;20036;-76
2021/01/17 04:12:34;;;;;;;68.93;31.08;;;-3.10;99.90;;;;;;5065477;28;20459;-77
2021/01/17 04:15:06;;;;;;;66.30;30.08;;;-3.20;99.90;;;;;;5078984;28;20048;-75
2021/01/17 04:17:35;;;;;;;72.00;32.63;;;-3.20;99.90;;;;;;5065813;28;20494;-76
2021/01/17 04:20:05;;;;;;;68.57;30.33;;;-3.20;99.90;;;;;;5053790;28;20079;-76
2021/01/17 04:22:38;;;;;;;73.07;31.52;;;-3.20;99.90;;;;;;5065711;28;20095;-76
2021/01/17 04:25:06;;;;;;;72.60;32.33;;;-3.20;99.90;;;;;;5082592;28;20137;-75
2021/01/17 04:27:32;;;;;;;70.88;31.10;;;-3.20;99.90;;;;;;5065176;28;20552;-76
2021/01/17 04:30:01;;;;;;;70.05;31.55;;;-3.20;99.90;;;;;;5056055;28;20139;-75
2021/01/17 04:32:28;;;;;;;66.45;30.88;;;-3.20;99.90;;;;;;5051203;28;20155;-76
2021/01/17 04:34:57;;;;;;;69.07;31.45;;;-3.10;99.90;;;;;;5067030;28;20112;-75
2021/01/17 04:37:25;;;;;;;67.90;31.20;;;-3.10;99.90;;;;;;5086814;28;20060;-77
2021/01/17 04:39:52;;;;;;;69.32;32.67;;;-3.10;99.90;;;;;;5085503;28;20072;-75
2021/01/17 04:42:23;;;;;;;73.93;33.30;;;-3.00;99.90;;;;;;5066415;28;20040;-75
2021/01/17 04:44:52;;;;;;;68.43;32.55;;;-3.00;99.90;;;;;;5075229;28;20036;-75
2021/01/17 04:47:19;;;;;;;74.18;32.28;;;-3.00;99.90;;;;;;5086259;28;20109;-76
2021/01/17 04:49:55;;;;;;;70.15;32.05;;;-3.00;99.90;;;;;;5050940;28;20048;-76
2021/01/17 04:52:23;;;;;;;65.95;30.40;;;-3.00;99.90;;;;;;5087065;28;20077;-76
2021/01/17 04:54:53;;;;;;;75.97;32.85;;;-3.00;99.90;;;;;;5082953;28;20085;-76
2021/01/17 04:57:52;;;;;;;71.65;33.20;;;-3.00;99.90;;;;;;5086466;28;20072;-77
2021/01/17 05:00:27;;;;;;;75.90;34.70;;;-3.10;99.90;;;;;;5085109;28;20132;-76
2021/01/17 05:03:25;;;;;;;78.75;32.45;;;-3.10;99.90;;;;;;5071935;28;20052;-75
2021/01/17 05:06:26;;;;;;;74.07;33.58;;;-3.00;99.90;;;;;;5054120;28;20699;-76
2021/01/17 05:08:59;;;;;;;79.03;33.40;;;-3.00;99.90;;;;;;5081175;28;20627;-75
2021/01/17 05:11:39;;;;;;;78.68;34.45;;;-3.00;99.90;;;;;;5081334;28;20072;-77
2021/01/17 05:14:20;;;;;;;76.03;31.88;;;-3.00;99.90;;;;;;5050148;28;20061;-75
2021/01/17 05:16:52;;;;;;;76.57;32.85;;;-2.90;99.90;;;;;;5065625;28;20051;-74
2021/01/17 05:19:20;;;;;;;75.90;34.28;;;-2.90;99.90;;;;;;5082568;28;20036;-76
2021/01/17 05:21:48;;;;;;;79.80;35.25;;;-2.90;99.90;;;;;;5066386;28;20069;-75
2021/01/17 05:24:19;;;;;;;76.57;33.05;;;-2.80;99.90;;;;;;5081325;28;20128;-75
2021/01/17 05:26:57;;;;;;;80.75;35.33;;;-2.80;99.90;;;;;;5082333;28;20059;-76
2021/01/17 05:29:26;;;;;;;78.88;33.63;;;-2.70;99.90;;;;;;5083002;28;20040;-77
2021/01/17 05:32:00;;;;;;;85.47;36.22;;;-2.70;99.90;;;;;;5083760;28;20044;-76
2021/01/17 05:34:30;;;;;;;81.50;35.22;;;-2.60;99.90;;;;;;5067481;28;20123;-77
2021/01/17 05:37:22;;;;;;;83.90;35.28;;;-2.60;99.90;;;;;;5084544;28;20044;-76
2021/01/17 05:39:59;;;;;;;83.40;35.28;;;-2.50;99.90;;;;;;5066115;28;20052;-76
2021/01/17 05:42:40;;;;;;;83.82;36.20;;;-2.50;99.90;;;;;;5081852;28;20170;-77
2021/01/17 05:45:12;;;;;;;91.35;37.90;;;-2.50;99.90;;;;;;5084518;28;20094;-77
2021/01/17 05:47:40;;;;;;;80.10;34.30;;;-2.50;99.90;;;;;;5063761;28;20055;-76
2021/01/17 05:50:15;;;;;;;83.72;36.35;;;-2.50;99.90;;;;;;5065128;28;20071;-76
2021/01/17 05:52:53;;;;;;;90.22;37.70;;;-2.40;99.90;;;;;;5064515;28;20052;-75
2021/01/17 05:55:29;;;;;;;93.65;38.03;;;-2.40;99.90;;;;;;5081857;28;20070;-77
2021/01/17 05:58:16;;;;;;;86.93;35.97;;;-2.40;99.90;;;;;;5067437;28;20473;-77
2021/01/17 06:00:42;;;;;;;89.13;37.67;;;-2.40;99.90;;;;;;5084834;28;20048;-75
2021/01/17 06:03:11;;;;;;;85.45;36.95;;;-2.40;99.90;;;;;;5064561;28;20133;-76
2021/01/17 06:05:40;;;;;;;95.13;38.60;;;-2.50;99.90;;;;;;5079118;28;20080;-76
2021/01/17 06:08:08;;;;;;;85.00;35.88;;;-2.50;99.90;;;;;;5062400;28;20055;-77
2021/01/17 06:10:37;;;;;;;88.53;36.22;;;-2.50;99.90;;;;;;5075071;28;20090;-77
2021/01/17 06:13:05;;;;;;;86.50;37.47;;;-2.50;99.90;;;;;;5081689;28;20075;-77
2021/01/17 06:15:34;;;;;;;81.45;35.40;;;-2.50;99.90;;;;;;5063825;28;20075;-79
2021/01/17 06:18:04;;;;;;;80.13;35.67;;;-2.50;99.90;;;;;;5065595;28;20048;-77
2021/01/17 06:20:33;;;;;;;91.78;37.50;;;-2.50;99.90;;;;;;5057784;28;20391;-77
2021/01/17 06:23:06;;;;;;;81.00;35.28;;;-2.50;99.90;;;;;;5070245;28;20059;-77
2021/01/17 06:25:37;;;;;;;87.85;37.20;;;-2.50;99.90;;;;;;5083140;28;20153;-78
2021/01/17 06:28:12;;;;;;;97.13;38.35;;;-2.50;99.90;;;;;;5046644;28;20044;-76
2021/01/17 06:30:41;;;;;;;87.13;37.25;;;-2.50;99.90;;;;;;5058718;28;20527;-77
2021/01/17 06:33:21;;;;;;;84.55;36.45;;;-2.50;99.90;;;;;;5078254;28;20085;-76
2021/01/17 06:36:17;;;;;;;75.88;35.35;;;-2.50;99.90;;;;;;5083928;28;20050;-77
2021/01/17 06:38:45;;;;;;;83.35;37.35;;;-2.50;99.90;;;;;;5057958;28;20099;-76
2021/01/17 06:41:25;;;;;;;83.20;37.03;;;-2.50;99.90;;;;;;5084102;28;20066;-76
2021/01/17 06:43:56;;;;;;;83.80;34.42;;;-2.50;99.90;;;;;;5066132;28;20060;-77
2021/01/17 06:46:44;;;;;;;88.50;34.67;;;-2.50;99.90;;;;;;5082901;28;20109;-77
2021/01/17 06:49:23;;;;;;;78.47;34.25;;;-2.50;99.90;;;;;;5076287;28;20076;-76
2021/01/17 06:51:54;;;;;;;79.85;35.53;;;-2.50;99.90;;;;;;5084840;28;20510;-77
2021/01/17 06:54:23;;;;;;;81.40;35.22;;;-2.50;99.90;;;;;;5052590;28;20194;-76
2021/01/17 06:56:51;;;;;;;78.00;36.00;;;-2.50;99.90;;;;;;5073819;28;20530;-76
2021/01/17 06:59:37;;;;;;;82.13;35.80;;;-2.40;99.90;;;;;;5081455;28;20517;-74
2021/01/17 07:02:13;;;;;;;80.47;36.47;;;-2.50;99.90;;;;;;5082043;28;20120;-74
2021/01/17 07:04:54;;;;;;;82.57;36.03;;;-2.50;99.90;;;;;;5082780;28;20501;-74
2021/01/17 07:07:58;;;;;;;83.07;36.08;;;-2.50;99.90;;;;;;5082155;28;20052;-76
2021/01/17 07:10:28;;;;;;;84.22;37.00;;;-2.50;99.90;;;;;;5082133;28;20090;-76
2021/01/17 07:12:57;;;;;;;92.10;38.67;;;-2.50;99.90;;;;;;5082975;28;20538;-75
2021/01/17 07:15:43;;;;;;;83.90;36.97;;;-2.50;99.90;;;;;;5083607;28;20085;-75
2021/01/17 07:18:12;;;;;;;87.57;35.70;;;-2.50;99.90;;;;;;5085120;28;20104;-74
2021/01/17 07:20:41;;;;;;;77.60;35.38;;;-2.50;99.90;;;;;;5072708;28;20040;-79
2021/01/17 07:23:09;;;;;;;77.28;35.17;;;-2.50;99.90;;;;;;5087538;28;20130;-75
2021/01/17 07:25:37;;;;;;;79.32;35.90;;;-2.40;99.90;;;;;;5063302;28;20127;-75
2021/01/17 07:28:18;;;;;;;84.53;35.55;;;-2.40;99.90;;;;;;5087191;28;20741;-75
2021/01/17 07:31:13;;;;;;;81.82;36.28;;;-2.40;99.90;;;;;;5062222;28;20052;-75
2021/01/17 07:33:39;;;;;;;82.32;35.85;;;-2.40;99.90;;;;;;5078254;28;20047;-74
2021/01/17 07:36:11;;;;;;;74.63;34.08;;;-2.40;99.90;;;;;;5085058;28;20047;-75
2021/01/17 07:38:43;;;;;;;81.63;35.15;;;-2.40;99.90;;;;;;5067911;28;20119;-74
2021/01/17 07:41:14;;;;;;;65.00;28.45;;;-2.40;99.90;;;;;;5077747;28;20466;-75
2021/01/17 07:43:43;;;;;;;82.28;37.15;;;-2.40;99.90;;;;;;5079926;28;20036;-75
2021/01/17 07:46:15;;;;;;;85.95;37.17;;;-2.30;99.90;;;;;;5077574;28;20131;-75
2021/01/17 07:48:45;;;;;;;84.78;38.42;;;-2.30;99.90;;;;;;5087551;28;20074;-75
2021/01/17 07:51:16;;;;;;;77.22;34.47;;;-2.30;99.90;;;;;;5064499;28;20378;-75
2021/01/17 07:54:26;;;;;;;79.57;35.22;;;-2.20;99.90;;;;;;5074561;28;20569;-75
2021/01/17 07:56:57;;;;;;;77.50;34.90;;;-2.10;99.90;;;;;;5080021;28;20144;-75
2021/01/17 07:59:25;;;;;;;79.20;37.95;;;-2.10;99.90;;;;;;5083880;28;20048;-76
2021/01/17 08:01:53;;;;;;;84.40;38.83;;;-2.00;99.90;;;;;;5052836;28;20139;-75
2021/01/17 08:04:19;;;;;;;86.38;41.72;;;-2.00;99.90;;;;;;5074920;28;20076;-75
2021/01/17 08:06:50;;;;;;;88.70;41.67;;;-2.00;99.90;;;;;;5080255;28;20039;-75
2021/01/17 08:09:17;;;;;;;92.63;41.13;;;-2.00;99.90;;;;;;5087313;28;20148;-75
2021/01/17 08:11:51;;;;;;;87.30;38.42;;;-1.90;99.90;;;;;;5068687;28;20119;-74
2021/01/17 08:14:25;;;;;;;110.25;49.00;;;-1.90;99.90;;;;;;5076259;28;20064;-75
2021/01/17 08:17:10;;;;;;;128.50;61.78;;;-1.90;99.90;;;;;;5085589;28;20176;-75
2021/01/17 08:19:40;;;;;;;148.00;69.22;;;-1.80;99.90;;;;;;5068710;28;20056;-74
2021/01/17 08:22:24;;;;;;;151.95;74.70;;;-1.80;99.90;;;;;;5073228;28;20048;-74
2021/01/17 08:24:55;;;;;;;140.50;65.35;;;-1.70;99.90;;;;;;5086407;28;20048;-75
2021/01/17 08:27:27;;;;;;;143.85;70.80;;;-1.70;99.90;;;;;;5055274;28;20044;-76
2021/01/17 08:30:03;;;;;;;118.38;57.55;;;-1.60;99.90;;;;;;5067901;28;20651;-75
2021/01/17 08:32:43;;;;;;;110.07;52.13;;;-1.60;99.90;;;;;;5076595;28;20048;-76
2021/01/17 08:35:25;;;;;;;107.03;51.20;;;-1.50;99.90;;;;;;5065552;28;20112;-75
2021/01/17 08:38:11;;;;;;;100.30;47.55;;;-1.50;99.90;;;;;;5063186;28;20048;-76
2021/01/17 08:40:37;;;;;;;102.55;50.08;;;-1.40;99.90;;;;;;5069679;28;20546;-76
2021/01/17 08:43:12;;;;;;;102.53;48.22;;;-1.30;99.90;;;;;;5066211;28;20143;-74
2021/01/17 08:45:48;;;;;;;85.55;42.90;;;-1.20;99.90;;;;;;5086277;28;20074;-76
2021/01/17 08:48:17;;;;;;;89.53;44.13;;;-1.20;99.90;;;;;;5081982;28;20076;-75
2021/01/17 08:50:48;;;;;;;74.03;36.15;;;-1.10;99.90;;;;;;5060988;28;20051;-77
2021/01/17 08:53:35;;;;;;;71.88;36.88;;;-1.00;99.90;;;;;;5069656;28;20048;-76
2021/01/17 08:56:21;;;;;;;77.53;39.17;;;-1.00;99.90;;;;;;5042204;28;20524;-76
2021/01/17 08:58:54;;;;;;;72.88;36.03;;;-0.90;99.90;;;;;;5078547;28;20091;-77
2021/01/17 09:01:24;;;;;;;79.68;38.33;;;-0.90;99.90;;;;;;5066799;28;20643;-77
2021/01/17 09:03:54;;;;;;;73.65;36.20;;;-0.80;99.90;;;;;;5058364;28;20051;-76
2021/01/17 09:06:31;;;;;;;73.57;37.10;;;-0.80;99.90;;;;;;5056783;28;20082;-78
2021/01/17 09:09:06;;;;;;;60.70;32.67;;;-0.80;99.90;;;;;;5067437;28;20762;-75
2021/01/17 09:11:39;;;;;;;63.83;33.30;;;-0.70;99.90;;;;;;5084388;28;20514;-75
2021/01/17 09:14:22;;;;;;;54.45;30.88;;;-0.60;99.90;;;;;;5061057;28;20064;-75
2021/01/17 09:17:06;;;;;;;53.05;28.10;;;-0.50;99.90;;;;;;5082032;28;20067;-75
2021/01/17 09:19:35;;;;;;;55.30;27.83;;;-0.30;99.90;;;;;;5077806;28;20055;-77
2021/01/17 09:22:05;;;;;;;52.20;26.40;;;-0.20;99.90;;;;;;5061325;28;20040;-77
2021/01/17 09:24:36;;;;;;;46.78;25.08;;;-0.20;99.90;;;;;;5071229;28;20048;-77
2021/01/17 09:27:10;;;;;;;45.13;25.27;;;-0.10;99.90;;;;;;5081804;28;20044;-76
2021/01/17 09:29:41;;;;;;;49.13;25.15;;;-0.20;99.90;;;;;;5081733;28;20097;-75
2021/01/17 09:32:09;;;;;;;48.03;25.73;;;-0.20;99.90;;;;;;5081028;28;20044;-74
2021/01/17 09:34:42;;;;;;;52.70;27.30;;;-0.20;99.90;;;;;;5079231;28;20054;-75
2021/01/17 09:37:16;;;;;;;61.45;29.35;;;-0.30;99.90;;;;;;5085265;28;20089;-74
2021/01/17 09:39:44;;;;;;;48.72;26.85;;;-0.30;99.90;;;;;;5058291;28;20053;-75
2021/01/17 09:42:13;;;;;;;46.20;24.95;;;-0.30;99.90;;;;;;5081074;28;20129;-74
2021/01/17 09:44:41;;;;;;;51.58;26.25;;;-0.10;99.90;;;;;;5057276;28;20040;-75
2021/01/17 09:47:20;;;;;;;54.33;27.75;;;0.00;99.90;;;;;;5054095;28;20048;-74
2021/01/17 09:49:48;;;;;;;50.38;26.13;;;0.00;99.90;;;;;;5083299;28;20055;-75
2021/01/17 09:52:19;;;;;;;46.53;25.70;;;0.10;99.90;;;;;;5063643;28;20462;-76
2021/01/17 09:54:50;;;;;;;48.00;25.13;;;0.10;99.90;;;;;;5061187;28;20515;-75
2021/01/17 09:57:22;;;;;;;45.75;24.17;;;0.20;99.90;;;;;;5083079;28;20040;-76
2021/01/17 09:59:54;;;;;;;48.08;24.45;;;0.10;99.90;;;;;;5080894;28;20078;-77
2021/01/17 10:02:27;;;;;;;50.83;27.58;;;0.10;99.90;;;;;;5075152;28;20071;-76
2021/01/17 10:04:55;;;;;;;45.63;25.13;;;0.10;99.90;;;;;;5072774;28;20052;-76
2021/01/17 10:07:22;;;;;;;43.67;23.80;;;0.30;99.90;;;;;;5080473;28;20044;-74
2021/01/17 10:09:54;;;;;;;43.42;23.98;;;0.30;99.90;;;;;;5084261;28;20131;-75
2021/01/17 10:12:24;;;;;;;40.63;22.40;;;0.40;99.90;;;;;;5066430;28;20064;-75
2021/01/17 10:14:53;;;;;;;43.13;22.88;;;0.50;99.90;;;;;;5083297;28;20116;-74
2021/01/17 10:17:20;;;;;;;36.88;21.15;;;0.50;99.90;;;;;;5084872;28;20048;-75
2021/01/17 10:19:47;;;;;;;37.05;20.83;;;0.50;99.90;;;;;;5083232;28;20044;-75
2021/01/17 10:22:18;;;;;;;42.53;22.48;;;0.50;99.90;;;;;;5084161;28;20047;-75
2021/01/17 10:24:45;;;;;;;36.67;20.70;;;0.50;99.90;;;;;;5083568;28;20036;-76
2021/01/17 10:27:20;;;;;;;38.08;20.83;;;0.50;99.90;;;;;;5055804;28;20052;-75
2021/01/17 10:29:47;;;;;;;38.50;19.83;;;0.50;99.90;;;;;;5062639;28;20132;-75
2021/01/17 10:32:17;;;;;;;38.25;21.10;;;0.50;99.90;;;;;;5064275;28;20098;-74
2021/01/17 10:34:45;;;;;;;36.83;20.52;;;0.40;99.90;;;;;;5085283;28;20075;-74
2021/01/17 10:37:14;;;;;;;34.53;18.38;;;0.50;99.90;;;;;;5081094;28;20649;-75
2021/01/17 10:39:56;;;;;;;30.80;18.33;;;0.60;99.90;;;;;;5082885;28;20416;-75
2021/01/17 10:42:22;;;;;;;31.02;17.10;;;0.80;99.90;;;;;;5082642;28;20126;-75
2021/01/17 10:45:08;;;;;;;26.13;16.08;;;0.90;99.90;;;;;;5083579;28;20048;-75
2021/01/17 10:48:07;;;;;;;25.75;15.02;;;1.20;99.90;;;;;;5082483;28;20044;-76
2021/01/17 10:50:58;;;;;;;21.70;13.63;;;1.50;99.90;;;;;;5060895;28;20126;-76
2021/01/17 10:53:24;;;;;;;39.08;20.13;;;1.70;99.90;;;;;;5075564;28;20044;-77
2021/01/17 10:55:54;;;;;;;25.25;15.98;;;1.80;99.90;;;;;;5083820;28;20055;-76
2021/01/17 10:58:40;;;;;;;27.58;16.13;;;1.70;99.90;;;;;;5083545;28;20055;-77
2021/01/17 11:01:08;;;;;;;22.60;14.38;;;1.60;99.90;;;;;;5067758;28;20044;-74
2021/01/17 11:03:38;;;;;;;25.50;14.98;;;1.70;99.90;;;;;;5049870;28;20135;-75
2021/01/17 11:06:21;;;;;;;23.00;14.48;;;1.90;99.90;;;;;;5060975;28;20399;-75
2021/01/17 11:08:53;;;;;;;23.85;14.98;;;2.10;99.90;;;;;;5066369;28;20100;-74
2021/01/17 11:11:28;;;;;;;25.77;15.20;;;2.20;99.90;;;;;;5066073;28;20044;-76
2021/01/17 11:14:02;;;;;;;27.30;16.45;;;2.30;99.90;;;;;;5074827;28;20113;-77
2021/01/17 11:16:39;;;;;;;46.05;25.05;;;2.30;99.90;;;;;;5079588;28;20116;-75
2021/01/17 11:19:09;;;;;;;22.98;13.40;;;2.10;99.90;;;;;;5074946;28;20105;-76
2021/01/17 11:21:35;;;;;;;19.67;12.77;;;1.90;99.90;;;;;;5065744;28;20052;-75
2021/01/17 11:24:03;;;;;;;25.35;15.80;;;1.70;99.90;;;;;;5073999;28;20179;-76
2021/01/17 11:26:32;;;;;;;21.00;13.10;;;1.70;99.90;;;;;;5059312;28;20060;-77
2021/01/17 11:29:00;;;;;;;22.30;13.93;;;1.70;99.90;;;;;;5081271;28;20056;-77
2021/01/17 11:31:28;;;;;;;24.88;14.50;;;1.60;99.90;;;;;;5068602;28;20060;-77
2021/01/17 11:33:55;;;;;;;20.63;12.68;;;1.60;99.90;;;;;;5080122;28;20157;-77
2021/01/17 11:36:27;;;;;;;20.52;12.88;;;1.60;99.90;;;;;;5074719;28;20063;-77
2021/01/17 11:38:59;;;;;;;23.52;13.40;;;1.70;99.90;;;;;;5078031;28;20044;-77
2021/01/17 11:41:37;;;;;;;18.67;12.95;;;1.70;99.90;;;;;;5060558;28;20524;-76
2021/01/17 11:44:20;;;;;;;25.33;15.95;;;1.60;99.90;;;;;;5081429;28;20130;-77
2021/01/17 11:46:49;;;;;;;23.55;13.85;;;1.60;99.90;;;;;;5078692;28;20577;-77
2021/01/17 11:49:25;;;;;;;20.30;13.57;;;1.60;99.90;;;;;;5083812;28;20040;-77
2021/01/17 11:51:55;;;;;;;23.45;14.10;;;1.60;99.90;;;;;;5085294;28;20052;-77
2021/01/17 11:54:26;;;;;;;23.13;14.38;;;1.60;99.90;;;;;;5063582;28;20483;-77
2021/01/17 11:57:07;;;;;;;23.70;14.50;;;1.70;99.90;;;;;;5053964;28;20044;-78
2021/01/17 11:59:37;;;;;;;19.67;13.02;;;1.80;99.90;;;;;;5078538;28;20040;-77
2021/01/17 12:02:24;;;;;;;18.17;12.50;;;1.90;99.90;;;;;;5081051;28;20052;-77
2021/01/17 12:05:00;;;;;;;19.58;13.45;;;2.00;99.90;;;;;;5073574;28;20148;-77
2021/01/17 12:07:27;;;;;;;23.23;14.73;;;2.00;99.90;;;;;;5064748;28;20070;-78
2021/01/17 12:10:24;;;;;;;21.92;13.07;;;2.10;99.90;;;;;;5049000;28;20634;-78
2021/01/17 12:12:50;;;;;;;20.52;13.07;;;2.20;99.90;;;;;;5080619;28;20048;-78
2021/01/17 12:15:17;;;;;;;20.55;12.25;;;2.30;99.90;;;;;;5063176;28;20515;-78
2021/01/17 12:17:46;;;;;;;17.65;11.60;;;2.40;99.90;;;;;;5056450;28;20048;-77
2021/01/17 12:20:15;;;;;;;16.10;11.00;;;2.40;99.90;;;;;;5067555;28;20052;-77
2021/01/17 12:22:45;;;;;;;17.75;11.25;;;2.60;99.90;;;;;;5064613;28;20036;-78
2021/01/17 12:25:14;;;;;;;17.30;10.80;;;2.70;99.90;;;;;;5085325;28;20076;-79
2021/01/17 12:27:42;;;;;;;18.15;10.40;;;2.70;99.90;;;;;;5062472;28;20500;-77
2021/01/17 12:30:09;;;;;;;15.20;9.63;;;2.80;99.90;;;;;;5056160;28;20472;-77
2021/01/17 12:32:37;;;;;;;18.33;10.50;;;2.80;99.90;;;;;;5060840;28;20075;-77
2021/01/17 12:35:07;;;;;;;15.48;9.73;;;2.80;99.90;;;;;;5066426;28;20574;-78
2021/01/17 12:37:34;;;;;;;14.23;9.32;;;2.70;99.90;;;;;;5063125;28;20527;-78
2021/01/17 12:40:00;;;;;;;15.38;9.63;;;2.60;99.90;;;;;;5043968;28;20071;-77
2021/01/17 12:42:27;;;;;;;14.77;9.93;;;2.60;99.90;;;;;;5074622;28;20456;-78
2021/01/17 12:44:53;;;;;;;16.75;10.63;;;2.70;99.90;;;;;;5080291;28;20048;-78
2021/01/17 12:47:28;;;;;;;18.58;12.27;;;2.60;99.90;;;;;;5067492;28;20079;-78
2021/01/17 12:50:00;;;;;;;22.08;12.80;;;2.50;99.90;;;;;;5073333;28;20749;-78
2021/01/17 12:52:27;;;;;;;20.02;13.50;;;2.20;99.90;;;;;;5082478;28;20052;-78
2021/01/17 12:54:54;;;;;;;21.40;14.30;;;2.10;99.90;;;;;;5067295;28;20048;-78